Time,TemperatureF,DewpointF,PressureIn,WindDirection,WindDirectionDegrees,WindSpeedMPH,WindSpeedGustMPH,Humidity,HourlyPrecipIn,Conditions,Clouds,dailyrainin,SoftwareType,DateUTC
2016-02-13 00:04:00,45.0,33.0,-100.00,WNW,298,8.0,14.0,63,-99.99,,,-99.99,,2016-02-13 07:04:00,
2016-02-13 00:13:00,45.0,33.0,-100.00,WNW,298,8.0,14.0,63,-99.99,,,-99.99,,2016-02-13 07:13:00,
2016-02-13 00:23:00,45.0,33.0,-100.00,WNW,298,8.0,14.0,63,-99.99,,,-99.99,,2016-02-13 07:23:00,
2016-02-13 00:54:00,44.0,33.0,-100.00,NW,311,6.0,10.0,64,-99.99,,,-99.99,,2016-02-13 07:54:00,
2016-02-13 01:04:00,44.0,33.0,-100.00,NW,311,6.0,10.0,64,-99.99,,,-99.99,,2016-02-13 08:04:00,
2016-02-13 01:13:00,44.0,33.0,-100.00,NW,311,6.0,10.0,64,-99.99,,,-99.99,,2016-02-13 08:13:00,
2016-02-13 01:23:00,44.0,33.0,-100.00,NW,311,6.0,10.0,64,-99.99,,,-99.99,,2016-02-13 08:23:00,
2016-02-13 01:54:00,44.0,32.0,-100.00,WNW,303,6.0,9.0,63,-99.99,,,-99.99,,2016-02-13 08:54:00,
2016-02-13 02:03:00,44.0,32.0,-100.00,WNW,303,6.0,9.0,63,-99.99,,,-99.99,,2016-02-13 09:03:00,
2016-02-13 02:13:00,44.0,32.0,-100.00,WNW,303,6.0,9.0,63,-99.99,,,-99.99,,2016-02-13 09:13:00,
2016-02-13 02:23:00,44.0,32.0,-100.00,WNW,303,6.0,9.0,63,-99.99,,,-99.99,,2016-02-13 09:23:00,
2016-02-13 03:03:00,43.0,33.0,-100.00,NW,304,4.0,7.0,67,-99.99,,,-99.99,,2016-02-13 10:03:00,
2016-02-13 03:13:00,43.0,33.0,-100.00,NW,304,4.0,7.0,67,-99.99,,,-99.99,,2016-02-13 10:13:00,
2016-02-13 03:24:00,43.0,33.0,-100.00,NW,304,4.0,7.0,67,-99.99,,,-99.99,,2016-02-13 10:24:00,
2016-02-13 03:30:00,45.0,30.0,-100.00,NW,314,6.0,7.0,56,-99.99,,,-99.99,,2016-02-13 10:30:00,
2016-02-13 03:54:00,45.0,30.0,-100.00,NW,314,6.0,7.0,56,-99.99,,,-99.99,,2016-02-13 10:54:00,
2016-02-13 04:04:00,45.0,30.0,-100.00,NW,314,6.0,7.0,56,-99.99,,,-99.99,,2016-02-13 11:04:00,
2016-02-13 04:23:00,45.0,30.0,-100.00,NW,314,6.0,7.0,56,-99.99,,,-99.99,,2016-02-13 11:23:00,
2016-02-13 04:30:00,44.0,30.0,-100.00,West,267,9.0,14.0,57,-99.99,,,-99.99,,2016-02-13 11:30:00,
2016-02-13 05:04:00,44.0,30.0,-100.00,West,267,9.0,14.0,57,-99.99,,,-99.99,,2016-02-13 12:04:00,
2016-02-13 05:13:00,44.0,30.0,-100.00,West,267,9.0,14.0,57,-99.99,,,-99.99,,2016-02-13 12:13:00,
2016-02-13 05:23:00,44.0,30.0,-100.00,West,267,9.0,14.0,57,-99.99,,,-99.99,,2016-02-13 12:23:00,
2016-02-13 05:30:00,43.0,37.0,-100.00,SW,225,5.0,15.0,79,-99.99,,,-99.99,,2016-02-13 12:30:00,
2016-02-13 06:04:00,43.0,37.0,-100.00,SW,225,5.0,15.0,79,-99.99,,,-99.99,,2016-02-13 13:04:00,
2016-02-13 06:13:00,43.0,37.0,-100.00,SW,225,5.0,15.0,79,-99.99,,,-99.99,,2016-02-13 13:13:00,
2016-02-13 06:23:00,43.0,37.0,-100.00,SW,225,5.0,15.0,79,-99.99,,,-99.99,,2016-02-13 13:23:00,
2016-02-13 06:30:00,42.0,36.0,-100.00,WSW,251,7.0,12.0,79,-99.99,,,-99.99,,2016-02-13 13:30:00,
2016-02-13 06:54:00,42.0,36.0,-100.00,WSW,251,7.0,12.0,79,-99.99,,,-99.99,,2016-02-13 13:54:00,
2016-02-13 07:03:00,42.0,36.0,-100.00,WSW,251,7.0,12.0,79,-99.99,,,-99.99,,2016-02-13 14:03:00,
2016-02-13 07:13:00,42.0,36.0,-100.00,WSW,251,7.0,12.0,79,-99.99,,,-99.99,,2016-02-13 14:13:00,
2016-02-13 07:23:00,42.0,36.0,-100.00,WSW,251,7.0,12.0,79,-99.99,,,-99.99,,2016-02-13 14:23:00,
2016-02-13 07:30:00,44.0,29.0,-100.00,WSW,258,15.0,26.0,55,-99.99,,,-99.99,,2016-02-13 14:30:00,
2016-02-13 07:54:00,44.0,29.0,-100.00,WSW,258,15.0,26.0,55,-99.99,,,-99.99,,2016-02-13 14:54:00,
2016-02-13 08:03:00,44.0,29.0,-100.00,WSW,258,15.0,26.0,55,-99.99,,,-99.99,,2016-02-13 15:03:00,
2016-02-13 08:13:00,44.0,29.0,-100.00,WSW,258,15.0,26.0,55,-99.99,,,-99.99,,2016-02-13 15:13:00,
2016-02-13 09:03:00,42.0,26.0,-100.00,WSW,243,7.0,24.0,53,-99.99,,,-99.99,,2016-02-13 16:03:00,
2016-02-13 09:13:00,42.0,26.0,-100.00,WSW,243,7.0,-999.0,53,-99.99,,,-99.99,,2016-02-13 16:13:00,
2016-02-13 09:23:00,42.0,26.0,-100.00,WSW,243,7.0,24.0,53,-99.99,,,-99.99,,2016-02-13 16:23:00,
2016-02-13 10:05:00,42.0,26.0,-100.00,West,259,13.0,26.0,53,-99.99,,,-99.99,,2016-02-13 17:05:00,
2016-02-13 10:12:00,42.0,26.0,-100.00,West,259,13.0,26.0,53,-99.99,,,-99.99,,2016-02-13 17:12:00,
2016-02-13 10:23:00,42.0,26.0,-100.00,West,259,13.0,26.0,53,-99.99,,,-99.99,,2016-02-13 17:23:00,
2016-02-13 10:30:00,45.0,26.0,-100.00,WSW,254,18.0,29.0,47,-99.99,,,-99.99,,2016-02-13 17:30:00,
2016-02-13 10:55:00,45.0,26.0,-100.00,WSW,254,18.0,29.0,47,-99.99,,,-99.99,,2016-02-13 17:55:00,
2016-02-13 11:04:00,45.0,26.0,-100.00,WSW,254,18.0,29.0,47,-99.99,,,-99.99,,2016-02-13 18:04:00,
2016-02-13 11:13:00,45.0,26.0,-100.00,WSW,254,18.0,29.0,47,-99.99,,,-99.99,,2016-02-13 18:13:00,
2016-02-13 11:23:00,45.0,26.0,-100.00,WSW,254,18.0,29.0,47,-99.99,,,-99.99,,2016-02-13 18:23:00,
2016-02-13 11:30:00,42.0,25.0,-100.00,WSW,250,18.0,29.0,50,-99.99,,,-99.99,,2016-02-13 18:30:00,
2016-02-13 11:56:00,42.0,25.0,-100.00,WSW,250,18.0,29.0,50,-99.99,,,-99.99,,2016-02-13 18:56:00,
2016-02-13 12:03:00,42.0,25.0,-100.00,WSW,250,18.0,29.0,50,-99.99,,,-99.99,,2016-02-13 19:03:00,
2016-02-13 12:14:00,42.0,25.0,-100.00,WSW,250,18.0,29.0,50,-99.99,,,-99.99,,2016-02-13 19:14:00,
2016-02-13 12:23:00,42.0,25.0,-100.00,WSW,250,18.0,29.0,50,-99.99,,,-99.99,,2016-02-13 19:23:00,
2016-02-13 12:54:00,45.0,28.0,-100.00,WSW,251,11.0,21.0,51,-99.99,,,-99.99,,2016-02-13 19:54:00,
2016-02-13 13:03:00,45.0,28.0,-100.00,WSW,251,11.0,21.0,51,-99.99,,,-99.99,,2016-02-13 20:03:00,
2016-02-13 13:13:00,45.0,28.0,-100.00,WSW,251,11.0,21.0,51,-99.99,,,-99.99,,2016-02-13 20:13:00,
2016-02-13 13:23:00,45.0,28.0,-100.00,WSW,251,11.0,21.0,51,-99.99,,,-99.99,,2016-02-13 20:23:00,
2016-02-13 13:30:00,45.0,23.0,-100.00,WSW,255,15.0,22.0,42,-99.99,,,-99.99,,2016-02-13 20:30:00,
2016-02-13 13:54:00,45.0,23.0,-100.00,WSW,255,15.0,22.0,42,-99.99,,,-99.99,,2016-02-13 20:54:00,
2016-02-13 14:03:00,45.0,23.0,-100.00,WSW,255,15.0,22.0,42,-99.99,,,-99.99,,2016-02-13 21:03:00,
2016-02-13 14:12:00,45.0,23.0,-100.00,WSW,255,15.0,22.0,42,-99.99,,,-99.99,,2016-02-13 21:12:00,
2016-02-13 14:23:00,45.0,23.0,-100.00,WSW,255,15.0,22.0,42,-99.99,,,-99.99,,2016-02-13 21:23:00,
2016-02-13 14:30:00,47.0,23.0,-100.00,WSW,247,15.0,24.0,39,-99.99,,,-99.99,,2016-02-13 21:30:00,
2016-02-13 15:03:00,47.0,23.0,-100.00,WSW,247,15.0,24.0,39,-99.99,,,-99.99,,2016-02-13 22:03:00,
2016-02-13 15:13:00,47.0,23.0,-100.00,WSW,247,15.0,24.0,39,-99.99,,,-99.99,,2016-02-13 22:13:00,
2016-02-13 15:23:00,47.0,23.0,-100.00,WSW,247,15.0,24.0,39,-99.99,,,-99.99,,2016-02-13 22:23:00,
2016-02-13 15:30:00,46.0,20.0,-100.00,WSW,248,16.0,26.0,35,-99.99,,,-99.99,,2016-02-13 22:30:00,
2016-02-13 16:04:00,46.0,20.0,-100.00,WSW,248,16.0,26.0,35,-99.99,,,-99.99,,2016-02-13 23:04:00,
2016-02-13 16:30:00,45.0,20.0,-100.00,WSW,254,17.0,25.0,36,-99.99,,,-99.99,,2016-02-13 23:30:00,
2016-02-13 16:56:00,45.0,20.0,-100.00,WSW,254,17.0,25.0,36,-99.99,,,-99.99,,2016-02-13 23:56:00,
2016-02-13 17:04:00,45.0,20.0,-100.00,WSW,254,17.0,25.0,36,-99.99,,,-99.99,,2016-02-14 00:04:00,
2016-02-13 17:13:00,45.0,20.0,-100.00,WSW,254,17.0,25.0,36,-99.99,,,-99.99,,2016-02-14 00:13:00,
2016-02-13 17:23:00,45.0,20.0,-100.00,WSW,254,17.0,25.0,36,-99.99,,,-99.99,,2016-02-14 00:23:00,